Raylah — MFYK2 — position and weather

sailwx.info

Track history (hours):
 
Tides and Currents Weather Stations Pressure Air Temp Water Temp Dewpoint Dewpoint Depression Visibility Wind Speed Wind Dir Waves Ship Positions

Raylah

Last reported at 2017-Apr-28 04:42 UTC. Time now 2017-Jul-25 14:47 UTC.
Position N 25°37' W 079°52'.
Warning: this ship's position is months out of date.

Length 13 m.

Type: Pleasure craft. MMSI: 235020483.

Date/timePositionNaut miles runAvg speedWind from/ knotsBaromVisibWave heightAir tempDewpointWater temp
2017-Apr-28 04:42N 25°37' W 079°52'1 6.2
2017-Apr-28 04:27N 25°37' W 079°54'3 5.9
2017-Apr-28 04:00N 25°37' W 079°57'3 5.6
2017-Apr-28 03:30N 25°37' W 079°60'3 5.6
2017-Apr-28 03:00N 25°37' W 080°03'3 5.5
2017-Apr-28 02:30N 25°38' W 080°06'3 5.5
2017-Apr-28 01:59N 25°39' W 080°09'2 3.5
2017-Apr-28 01:30N 25°40' W 080°10'28 1.2
2017-Apr-27 02:57N 26°07' W 080°06'0 0.0
2017-Apr-27 00:23N 26°07' W 080°06'0 0.0
2017-Apr-26 23:59N 26°07' W 080°06'1 1.7
2017-Apr-26 23:29N 26°07' W 080°07'2 3.7
2017-Apr-26 22:58N 26°07' W 080°09'0 0.0
2017-Apr-26 12:44N 26°07' W 080°09'0 0.0
2017-Apr-26 12:29N 26°07' W 080°09'  
Track history (hours):
 
Tides and Currents Weather Stations Pressure Air Temp Water Temp Dewpoint Dewpoint Depression Visibility Wind Speed Wind Dir Waves Ship Positions

Raylah

Last reported at 2017-Apr-28 04:42 UTC. Time now 2017-Jul-25 14:47 UTC.
Position N 25°37' W 079°52'.
Warning: this ship's position is months out of date.

Length 13 m.

Type: Pleasure craft. MMSI: 235020483.

Date/timePositionNaut miles runAvg speedWind from/ knotsBaromVisibWave heightAir tempDewpointWater temp
2017-Apr-28 04:42N 25°37' W 079°52'1 6.2
2017-Apr-28 04:27N 25°37' W 079°54'3 5.9
2017-Apr-28 04:00N 25°37' W 079°57'3 5.6
2017-Apr-28 03:30N 25°37' W 079°60'3 5.6
2017-Apr-28 03:00N 25°37' W 080°03'3 5.5
2017-Apr-28 02:30N 25°38' W 080°06'3 5.5
2017-Apr-28 01:59N 25°39' W 080°09'2 3.5
2017-Apr-28 01:30N 25°40' W 080°10'28 1.2
2017-Apr-27 02:57N 26°07' W 080°06'0 0.0
2017-Apr-27 00:23N 26°07' W 080°06'0 0.0
2017-Apr-26 23:59N 26°07' W 080°06'1 1.7
2017-Apr-26 23:29N 26°07' W 080°07'2 3.7
2017-Apr-26 22:58N 26°07' W 080°09'0 0.0
2017-Apr-26 12:44N 26°07' W 080°09'0 0.0
2017-Apr-26 12:29N 26°07' W 080°09'  

Dump ship's entire track history